sensor_id;sensor_type;location;lat;lon;timestamp;P1;durP1;ratioP1;P2;durP2;ratioP2
33268;SDS011;19640;50.944;5.260;2023-05-10T00:00:33;13.30;;;8.73;;
33268;SDS011;19640;50.944;5.260;2023-05-10T00:02:59;11.98;;;9.15;;
33268;SDS011;19640;50.944;5.260;2023-05-10T00:05:24;9.30;;;8.25;;
33268;SDS011;19640;50.944;5.260;2023-05-10T00:07:50;9.07;;;8.18;;
33268;SDS011;19640;50.944;5.260;2023-05-10T00:10:16;9.65;;;7.97;;
33268;SDS011;19640;50.944;5.260;2023-05-10T00:12:41;8.90;;;7.68;;
33268;SDS011;19640;50.944;5.260;2023-05-10T00:15:07;8.70;;;7.25;;
33268;SDS011;19640;50.944;5.260;2023-05-10T00:17:34;11.80;;;7.55;;
33268;SDS011;19640;50.944;5.260;2023-05-10T00:19:59;13.40;;;8.23;;
33268;SDS011;19640;50.944;5.260;2023-05-10T00:22:25;9.75;;;7.45;;
33268;SDS011;19640;50.944;5.260;2023-05-10T00:24:51;9.85;;;7.35;;
33268;SDS011;19640;50.944;5.260;2023-05-10T00:27:17;9.52;;;7.03;;
33268;SDS011;19640;50.944;5.260;2023-05-10T00:29:42;8.38;;;7.43;;
33268;SDS011;19640;50.944;5.260;2023-05-10T00:32:08;10.70;;;7.57;;
33268;SDS011;19640;50.944;5.260;2023-05-10T00:34:34;16.38;;;7.75;;
33268;SDS011;19640;50.944;5.260;2023-05-10T00:37:00;8.68;;;7.78;;
33268;SDS011;19640;50.944;5.260;2023-05-10T00:39:25;8.43;;;7.50;;
33268;SDS011;19640;50.944;5.260;2023-05-10T00:41:54;8.80;;;7.50;;
33268;SDS011;19640;50.944;5.260;2023-05-10T00:44:20;10.15;;;7.57;;
33268;SDS011;19640;50.944;5.260;2023-05-10T00:46:46;10.20;;;7.95;;
33268;SDS011;19640;50.944;5.260;2023-05-10T00:49:13;14.07;;;8.02;;
33268;SDS011;19640;50.944;5.260;2023-05-10T00:51:39;9.57;;;8.15;;
33268;SDS011;19640;50.944;5.260;2023-05-10T00:54:07;8.82;;;7.95;;
33268;SDS011;19640;50.944;5.260;2023-05-10T00:56:36;9.13;;;8.00;;
33268;SDS011;19640;50.944;5.260;2023-05-10T00:59:01;10.90;;;8.05;;
33268;SDS011;19640;50.944;5.260;2023-05-10T01:01:28;10.27;;;8.35;;
33268;SDS011;19640;50.944;5.260;2023-05-10T01:03:54;11.68;;;8.75;;
33268;SDS011;19640;50.944;5.260;2023-05-10T01:06:20;10.57;;;8.00;;
33268;SDS011;19640;50.944;5.260;2023-05-10T01:08:46;12.65;;;8.82;;
33268;SDS011;19640;50.944;5.260;2023-05-10T01:11:13;10.27;;;8.38;;
33268;SDS011;19640;50.944;5.260;2023-05-10T01:13:40;9.48;;;7.43;;
33268;SDS011;19640;50.944;5.260;2023-05-10T01:16:07;13.25;;;8.10;;
33268;SDS011;19640;50.944;5.260;2023-05-10T01:18:36;12.70;;;7.80;;
33268;SDS011;19640;50.944;5.260;2023-05-10T01:32:32;11.48;;;7.95;;
33268;SDS011;19640;50.944;5.260;2023-05-10T01:35:09;12.27;;;8.30;;
33268;SDS011;19640;50.944;5.260;2023-05-10T01:42:40;12.77;;;8.55;;
33268;SDS011;19640;50.944;5.260;2023-05-10T01:47:58;15.05;;;8.82;;
33268;SDS011;19640;50.944;5.260;2023-05-10T01:50:37;13.93;;;8.48;;
33268;SDS011;19640;50.944;5.260;2023-05-10T01:53:07;11.60;;;8.10;;
33268;SDS011;19640;50.944;5.260;2023-05-10T01:55:47;14.15;;;8.68;;
33268;SDS011;19640;50.944;5.260;2023-05-10T01:58:19;14.88;;;8.90;;
33268;SDS011;19640;50.944;5.260;2023-05-10T02:00:47;12.80;;;8.50;;
33268;SDS011;19640;50.944;5.260;2023-05-10T02:03:16;12.38;;;8.85;;
33268;SDS011;19640;50.944;5.260;2023-05-10T02:05:46;14.07;;;8.90;;
33268;SDS011;19640;50.944;5.260;2023-05-10T02:08:14;15.95;;;8.68;;
33268;SDS011;19640;50.944;5.260;2023-05-10T02:10:42;15.75;;;9.70;;
33268;SDS011;19640;50.944;5.260;2023-05-10T02:13:10;11.63;;;9.20;;
33268;SDS011;19640;50.944;5.260;2023-05-10T02:15:38;16.75;;;9.88;;
33268;SDS011;19640;50.944;5.260;2023-05-10T02:18:06;17.10;;;10.40;;
33268;SDS011;19640;50.944;5.260;2023-05-10T02:20:34;15.15;;;9.95;;
33268;SDS011;19640;50.944;5.260;2023-05-10T02:23:01;12.63;;;9.45;;
33268;SDS011;19640;50.944;5.260;2023-05-10T02:25:28;18.10;;;9.85;;
33268;SDS011;19640;50.944;5.260;2023-05-10T02:27:57;17.58;;;11.10;;
33268;SDS011;19640;50.944;5.260;2023-05-10T02:30:25;21.17;;;11.07;;
33268;SDS011;19640;50.944;5.260;2023-05-10T02:32:52;13.82;;;10.45;;
33268;SDS011;19640;50.944;5.260;2023-05-10T02:35:18;16.73;;;10.32;;
33268;SDS011;19640;50.944;5.260;2023-05-10T02:37:45;20.42;;;10.75;;
33268;SDS011;19640;50.944;5.260;2023-05-10T02:40:12;17.73;;;9.75;;
33268;SDS011;19640;50.944;5.260;2023-05-10T02:42:40;15.07;;;10.38;;
33268;SDS011;19640;50.944;5.260;2023-05-10T02:45:08;16.10;;;10.55;;
33268;SDS011;19640;50.944;5.260;2023-05-10T02:47:37;16.33;;;10.38;;
33268;SDS011;19640;50.944;5.260;2023-05-10T02:50:03;15.73;;;9.68;;
33268;SDS011;19640;50.944;5.260;2023-05-10T02:52:30;18.65;;;10.70;;
33268;SDS011;19640;50.944;5.260;2023-05-10T02:55:04;16.92;;;10.95;;
33268;SDS011;19640;50.944;5.260;2023-05-10T02:57:34;20.05;;;11.30;;
33268;SDS011;19640;50.944;5.260;2023-05-10T03:00:03;16.02;;;10.48;;
33268;SDS011;19640;50.944;5.260;2023-05-10T03:02:30;22.52;;;10.85;;
33268;SDS011;19640;50.944;5.260;2023-05-10T03:04:56;14.60;;;10.95;;
33268;SDS011;19640;50.944;5.260;2023-05-10T03:07:21;14.18;;;9.65;;
33268;SDS011;19640;50.944;5.260;2023-05-10T03:09:48;14.32;;;9.05;;
33268;SDS011;19640;50.944;5.260;2023-05-10T03:12:31;22.23;;;9.88;;
33268;SDS011;19640;50.944;5.260;2023-05-10T03:15:46;18.63;;;10.70;;
33268;SDS011;19640;50.944;5.260;2023-05-10T03:18:07;15.10;;;9.88;;
33268;SDS011;19640;50.944;5.260;2023-05-10T03:20:41;16.60;;;9.70;;
33268;SDS011;19640;50.944;5.260;2023-05-10T03:25:37;15.05;;;10.13;;
33268;SDS011;19640;50.944;5.260;2023-05-10T03:28:03;17.33;;;9.30;;
33268;SDS011;19640;50.944;5.260;2023-05-10T03:30:30;18.05;;;10.40;;
33268;SDS011;19640;50.944;5.260;2023-05-10T03:32:56;19.38;;;11.38;;
33268;SDS011;19640;50.944;5.260;2023-05-10T03:35:22;23.65;;;9.52;;
33268;SDS011;19640;50.944;5.260;2023-05-10T03:37:48;19.58;;;10.02;;
33268;SDS011;19640;50.944;5.260;2023-05-10T03:40:14;16.38;;;10.27;;
33268;SDS011;19640;50.944;5.260;2023-05-10T03:42:41;16.48;;;11.27;;
33268;SDS011;19640;50.944;5.260;2023-05-10T03:45:06;18.35;;;10.80;;
33268;SDS011;19640;50.944;5.260;2023-05-10T03:47:33;17.77;;;10.15;;
33268;SDS011;19640;50.944;5.260;2023-05-10T03:49:58;14.05;;;9.73;;
33268;SDS011;19640;50.944;5.260;2023-05-10T03:52:24;17.10;;;10.73;;
33268;SDS011;19640;50.944;5.260;2023-05-10T03:54:50;14.80;;;9.85;;
33268;SDS011;19640;50.944;5.260;2023-05-10T03:57:16;15.13;;;10.20;;
33268;SDS011;19640;50.944;5.260;2023-05-10T03:59:41;18.33;;;10.68;;
33268;SDS011;19640;50.944;5.260;2023-05-10T04:02:07;19.25;;;10.68;;
33268;SDS011;19640;50.944;5.260;2023-05-10T04:04:33;21.05;;;11.07;;
33268;SDS011;19640;50.944;5.260;2023-05-10T04:06:58;21.75;;;12.30;;
33268;SDS011;19640;50.944;5.260;2023-05-10T04:09:24;16.33;;;11.65;;
33268;SDS011;19640;50.944;5.260;2023-05-10T04:11:50;19.60;;;11.63;;
33268;SDS011;19640;50.944;5.260;2023-05-10T04:14:16;19.30;;;12.02;;
33268;SDS011;19640;50.944;5.260;2023-05-10T04:16:41;18.88;;;11.52;;
33268;SDS011;19640;50.944;5.260;2023-05-10T04:19:07;19.33;;;11.93;;
33268;SDS011;19640;50.944;5.260;2023-05-10T04:21:33;22.55;;;13.13;;
33268;SDS011;19640;50.944;5.260;2023-05-10T04:23:58;22.70;;;12.90;;
33268;SDS011;19640;50.944;5.260;2023-05-10T04:26:24;25.75;;;12.63;;
33268;SDS011;19640;50.944;5.260;2023-05-10T04:28:50;22.23;;;12.98;;
33268;SDS011;19640;50.944;5.260;2023-05-10T04:31:16;19.40;;;12.90;;
33268;SDS011;19640;50.944;5.260;2023-05-10T04:33:42;22.42;;;12.18;;
33268;SDS011;19640;50.944;5.260;2023-05-10T04:36:07;26.10;;;14.07;;
33268;SDS011;19640;50.944;5.260;2023-05-10T04:38:33;20.60;;;13.80;;
33268;SDS011;19640;50.944;5.260;2023-05-10T04:41:06;22.58;;;12.68;;
33268;SDS011;19640;50.944;5.260;2023-05-10T04:43:32;26.77;;;14.10;;
33268;SDS011;19640;50.944;5.260;2023-05-10T04:45:58;27.48;;;13.77;;
33268;SDS011;19640;50.944;5.260;2023-05-10T04:48:24;19.58;;;12.48;;
33268;SDS011;19640;50.944;5.260;2023-05-10T04:50:50;23.42;;;13.07;;
33268;SDS011;19640;50.944;5.260;2023-05-10T04:53:15;25.60;;;15.05;;
33268;SDS011;19640;50.944;5.260;2023-05-10T04:55:41;28.83;;;15.00;;
33268;SDS011;19640;50.944;5.260;2023-05-10T04:58:07;35.97;;;17.15;;
33268;SDS011;19640;50.944;5.260;2023-05-10T05:00:33;31.50;;;16.25;;
33268;SDS011;19640;50.944;5.260;2023-05-10T05:02:58;33.90;;;17.38;;
33268;SDS011;19640;50.944;5.260;2023-05-10T05:05:24;35.97;;;16.42;;
33268;SDS011;19640;50.944;5.260;2023-05-10T05:07:50;38.28;;;17.60;;
33268;SDS011;19640;50.944;5.260;2023-05-10T05:10:16;40.90;;;17.35;;
33268;SDS011;19640;50.944;5.260;2023-05-10T05:12:41;36.05;;;17.25;;
33268;SDS011;19640;50.944;5.260;2023-05-10T05:15:07;49.75;;;19.50;;
33268;SDS011;19640;50.944;5.260;2023-05-10T05:17:34;36.75;;;17.80;;
33268;SDS011;19640;50.944;5.260;2023-05-10T05:20:00;43.80;;;18.13;;
33268;SDS011;19640;50.944;5.260;2023-05-10T05:22:26;44.45;;;18.27;;
33268;SDS011;19640;50.944;5.260;2023-05-10T05:24:56;44.22;;;18.45;;
33268;SDS011;19640;50.944;5.260;2023-05-10T05:27:23;44.60;;;18.20;;
33268;SDS011;19640;50.944;5.260;2023-05-10T05:29:52;42.25;;;19.15;;
33268;SDS011;19640;50.944;5.260;2023-05-10T05:32:21;48.30;;;19.48;;
33268;SDS011;19640;50.944;5.260;2023-05-10T05:34:47;47.88;;;19.40;;
33268;SDS011;19640;50.944;5.260;2023-05-10T05:37:13;55.40;;;21.00;;
33268;SDS011;19640;50.944;5.260;2023-05-10T05:39:41;53.20;;;21.30;;
33268;SDS011;19640;50.944;5.260;2023-05-10T05:42:07;51.67;;;21.00;;
33268;SDS011;19640;50.944;5.260;2023-05-10T05:44:35;58.45;;;22.25;;
33268;SDS011;19640;50.944;5.260;2023-05-10T05:47:02;63.25;;;20.08;;
33268;SDS011;19640;50.944;5.260;2023-05-10T05:49:28;68.93;;;21.75;;
33268;SDS011;19640;50.944;5.260;2023-05-10T05:51:54;62.00;;;21.48;;
33268;SDS011;19640;50.944;5.260;2023-05-10T05:54:20;55.00;;;22.92;;
33268;SDS011;19640;50.944;5.260;2023-05-10T05:56:45;60.25;;;21.58;;
33268;SDS011;19640;50.944;5.260;2023-05-10T05:59:12;51.42;;;19.50;;
33268;SDS011;19640;50.944;5.260;2023-05-10T06:01:38;44.42;;;20.40;;
33268;SDS011;19640;50.944;5.260;2023-05-10T06:04:04;49.65;;;19.67;;
33268;SDS011;19640;50.944;5.260;2023-05-10T06:06:29;50.30;;;19.80;;
33268;SDS011;19640;50.944;5.260;2023-05-10T06:08:56;47.78;;;20.45;;
33268;SDS011;19640;50.944;5.260;2023-05-10T06:11:21;43.70;;;20.67;;
33268;SDS011;19640;50.944;5.260;2023-05-10T06:13:47;44.63;;;19.83;;
33268;SDS011;19640;50.944;5.260;2023-05-10T06:16:13;51.10;;;22.00;;
33268;SDS011;19640;50.944;5.260;2023-05-10T06:18:39;45.97;;;20.45;;
33268;SDS011;19640;50.944;5.260;2023-05-10T06:21:04;51.33;;;20.95;;
33268;SDS011;19640;50.944;5.260;2023-05-10T06:23:30;46.63;;;22.00;;
33268;SDS011;19640;50.944;5.260;2023-05-10T06:25:56;47.20;;;20.90;;
33268;SDS011;19640;50.944;5.260;2023-05-10T06:28:21;48.90;;;21.08;;
33268;SDS011;19640;50.944;5.260;2023-05-10T06:30:47;45.65;;;21.55;;
33268;SDS011;19640;50.944;5.260;2023-05-10T06:33:13;45.42;;;20.13;;
33268;SDS011;19640;50.944;5.260;2023-05-10T06:35:39;39.35;;;20.10;;
33268;SDS011;19640;50.944;5.260;2023-05-10T06:38:05;38.47;;;18.83;;
33268;SDS011;19640;50.944;5.260;2023-05-10T06:40:30;38.45;;;18.40;;
33268;SDS011;19640;50.944;5.260;2023-05-10T06:42:56;42.85;;;19.40;;
33268;SDS011;19640;50.944;5.260;2023-05-10T06:45:22;38.58;;;18.85;;
33268;SDS011;19640;50.944;5.260;2023-05-10T06:47:47;44.85;;;19.77;;
33268;SDS011;19640;50.944;5.260;2023-05-10T06:50:13;43.70;;;20.20;;
33268;SDS011;19640;50.944;5.260;2023-05-10T06:52:39;44.00;;;19.58;;
33268;SDS011;19640;50.944;5.260;2023-05-10T06:55:04;47.03;;;20.77;;
33268;SDS011;19640;50.944;5.260;2023-05-10T06:57:31;44.58;;;19.45;;
33268;SDS011;19640;50.944;5.260;2023-05-10T06:59:57;45.28;;;19.45;;
33268;SDS011;19640;50.944;5.260;2023-05-10T07:02:23;55.90;;;21.00;;
33268;SDS011;19640;50.944;5.260;2023-05-10T07:04:49;50.72;;;21.17;;
33268;SDS011;19640;50.944;5.260;2023-05-10T07:07:16;47.75;;;19.90;;
33268;SDS011;19640;50.944;5.260;2023-05-10T07:09:42;54.70;;;21.88;;
33268;SDS011;19640;50.944;5.260;2023-05-10T07:12:08;42.60;;;19.52;;
33268;SDS011;19640;50.944;5.260;2023-05-10T07:14:33;43.92;;;20.33;;
33268;SDS011;19640;50.944;5.260;2023-05-10T07:16:59;39.90;;;19.45;;
33268;SDS011;19640;50.944;5.260;2023-05-10T07:19:25;39.95;;;19.67;;
33268;SDS011;19640;50.944;5.260;2023-05-10T07:21:51;44.25;;;20.13;;
33268;SDS011;19640;50.944;5.260;2023-05-10T07:24:16;40.38;;;19.55;;
33268;SDS011;19640;50.944;5.260;2023-05-10T07:26:42;45.42;;;18.63;;
33268;SDS011;19640;50.944;5.260;2023-05-10T07:29:08;44.47;;;20.50;;
33268;SDS011;19640;50.944;5.260;2023-05-10T07:31:34;39.83;;;19.58;;
33268;SDS011;19640;50.944;5.260;2023-05-10T07:34:00;39.28;;;18.63;;
33268;SDS011;19640;50.944;5.260;2023-05-10T07:36:26;40.88;;;17.92;;
33268;SDS011;19640;50.944;5.260;2023-05-10T07:38:52;40.65;;;19.23;;
33268;SDS011;19640;50.944;5.260;2023-05-10T07:41:18;44.90;;;20.13;;
33268;SDS011;19640;50.944;5.260;2023-05-10T07:43:43;41.88;;;18.65;;
33268;SDS011;19640;50.944;5.260;2023-05-10T07:46:09;43.47;;;20.60;;
33268;SDS011;19640;50.944;5.260;2023-05-10T07:48:36;33.30;;;18.40;;
33268;SDS011;19640;50.944;5.260;2023-05-10T07:51:02;31.02;;;17.80;;
33268;SDS011;19640;50.944;5.260;2023-05-10T07:53:28;34.45;;;17.52;;
33268;SDS011;19640;50.944;5.260;2023-05-10T07:55:54;31.77;;;17.50;;
33268;SDS011;19640;50.944;5.260;2023-05-10T07:58:25;35.97;;;18.15;;
33268;SDS011;19640;50.944;5.260;2023-05-10T08:00:51;33.58;;;16.67;;
33268;SDS011;19640;50.944;5.260;2023-05-10T08:03:17;28.23;;;15.90;;
33268;SDS011;19640;50.944;5.260;2023-05-10T08:05:43;26.10;;;15.43;;
33268;SDS011;19640;50.944;5.260;2023-05-10T08:08:09;22.88;;;14.10;;
33268;SDS011;19640;50.944;5.260;2023-05-10T08:10:34;17.92;;;12.40;;
33268;SDS011;19640;50.944;5.260;2023-05-10T08:13:00;7.45;;;5.97;;
33268;SDS011;19640;50.944;5.260;2023-05-10T08:15:25;12.60;;;4.93;;
33268;SDS011;19640;50.944;5.260;2023-05-10T08:17:51;4.22;;;3.50;;
33268;SDS011;19640;50.944;5.260;2023-05-10T08:20:17;4.95;;;3.40;;
33268;SDS011;19640;50.944;5.260;2023-05-10T08:22:47;3.67;;;3.00;;
33268;SDS011;19640;50.944;5.260;2023-05-10T08:25:12;3.42;;;2.80;;
33268;SDS011;19640;50.944;5.260;2023-05-10T08:27:38;3.58;;;2.45;;
33268;SDS011;19640;50.944;5.260;2023-05-10T08:30:04;2.78;;;2.38;;
33268;SDS011;19640;50.944;5.260;2023-05-10T08:32:31;2.90;;;2.28;;
33268;SDS011;19640;50.944;5.260;2023-05-10T08:34:56;3.10;;;2.45;;
33268;SDS011;19640;50.944;5.260;2023-05-10T08:37:23;3.17;;;2.30;;
33268;SDS011;19640;50.944;5.260;2023-05-10T08:39:48;4.15;;;2.65;;
33268;SDS011;19640;50.944;5.260;2023-05-10T08:42:16;3.30;;;2.58;;
33268;SDS011;19640;50.944;5.260;2023-05-10T08:44:45;3.17;;;2.53;;
33268;SDS011;19640;50.944;5.260;2023-05-10T08:47:13;3.42;;;2.42;;
33268;SDS011;19640;50.944;5.260;2023-05-10T08:49:43;3.40;;;3.10;;
33268;SDS011;19640;50.944;5.260;2023-05-10T08:52:11;3.17;;;2.88;;
33268;SDS011;19640;50.944;5.260;2023-05-10T08:54:40;3.92;;;2.63;;
33268;SDS011;19640;50.944;5.260;2023-05-10T08:57:06;3.45;;;3.15;;
33268;SDS011;19640;50.944;5.260;2023-05-10T08:59:32;5.80;;;3.75;;
33268;SDS011;19640;50.944;5.260;2023-05-10T09:01:58;5.38;;;2.97;;
33268;SDS011;19640;50.944;5.260;2023-05-10T09:04:25;19.08;;;4.35;;
33268;SDS011;19640;50.944;5.260;2023-05-10T09:06:51;4.70;;;3.80;;
33268;SDS011;19640;50.944;5.260;2023-05-10T09:09:17;6.25;;;3.78;;
33268;SDS011;19640;50.944;5.260;2023-05-10T09:11:44;4.88;;;3.65;;
33268;SDS011;19640;50.944;5.260;2023-05-10T09:14:10;4.47;;;3.60;;
33268;SDS011;19640;50.944;5.260;2023-05-10T09:16:37;4.68;;;3.72;;
33268;SDS011;19640;50.944;5.260;2023-05-10T09:19:03;5.85;;;3.42;;
33268;SDS011;19640;50.944;5.260;2023-05-10T09:21:29;4.53;;;3.90;;
33268;SDS011;19640;50.944;5.260;2023-05-10T09:23:56;5.00;;;3.83;;
33268;SDS011;19640;50.944;5.260;2023-05-10T09:26:22;6.30;;;3.80;;
33268;SDS011;19640;50.944;5.260;2023-05-10T09:28:55;6.28;;;4.93;;
33268;SDS011;19640;50.944;5.260;2023-05-10T09:31:25;4.53;;;3.85;;
33268;SDS011;19640;50.944;5.260;2023-05-10T09:34:19;4.80;;;4.10;;
33268;SDS011;19640;50.944;5.260;2023-05-10T09:39:19;8.27;;;5.07;;
33268;SDS011;19640;50.944;5.260;2023-05-10T09:41:45;8.18;;;4.95;;
33268;SDS011;19640;50.944;5.260;2023-05-10T09:44:10;6.82;;;5.55;;
33268;SDS011;19640;50.944;5.260;2023-05-10T09:46:36;6.15;;;4.85;;
33268;SDS011;19640;50.944;5.260;2023-05-10T09:49:02;6.75;;;5.85;;
33268;SDS011;19640;50.944;5.260;2023-05-10T09:51:27;6.63;;;5.65;;
33268;SDS011;19640;50.944;5.260;2023-05-10T09:54:10;7.00;;;5.68;;
33268;SDS011;19640;50.944;5.260;2023-05-10T09:56:36;8.80;;;6.72;;
33268;SDS011;19640;50.944;5.260;2023-05-10T09:59:05;8.48;;;6.10;;
33268;SDS011;19640;50.944;5.260;2023-05-10T10:01:31;8.13;;;6.53;;
33268;SDS011;19640;50.944;5.260;2023-05-10T10:03:58;10.45;;;6.55;;
33268;SDS011;19640;50.944;5.260;2023-05-10T10:06:24;9.60;;;6.85;;
33268;SDS011;19640;50.944;5.260;2023-05-10T10:08:50;8.15;;;6.25;;
33268;SDS011;19640;50.944;5.260;2023-05-10T10:11:16;8.77;;;7.20;;
33268;SDS011;19640;50.944;5.260;2023-05-10T10:13:42;8.50;;;6.63;;
33268;SDS011;19640;50.944;5.260;2023-05-10T10:16:08;10.13;;;6.85;;
33268;SDS011;19640;50.944;5.260;2023-05-10T10:18:34;9.80;;;7.75;;
33268;SDS011;19640;50.944;5.260;2023-05-10T10:21:05;14.43;;;7.18;;
33268;SDS011;19640;50.944;5.260;2023-05-10T10:23:37;12.98;;;8.50;;
33268;SDS011;19640;50.944;5.260;2023-05-10T10:26:03;9.57;;;7.15;;
33268;SDS011;19640;50.944;5.260;2023-05-10T10:28:42;8.07;;;6.80;;
33268;SDS011;19640;50.944;5.260;2023-05-10T10:34:45;8.90;;;6.05;;
33268;SDS011;19640;50.944;5.260;2023-05-10T10:37:05;7.80;;;6.10;;
33268;SDS011;19640;50.944;5.260;2023-05-10T10:39:32;7.80;;;5.75;;
33268;SDS011;19640;50.944;5.260;2023-05-10T10:41:58;9.05;;;6.28;;
33268;SDS011;19640;50.944;5.260;2023-05-10T10:49:23;7.35;;;6.25;;
33268;SDS011;19640;50.944;5.260;2023-05-10T10:55:10;6.05;;;5.00;;
33268;SDS011;19640;50.944;5.260;2023-05-10T11:00:19;7.93;;;5.97;;
33268;SDS011;19640;50.944;5.260;2023-05-10T11:07:53;8.00;;;5.07;;
33268;SDS011;19640;50.944;5.260;2023-05-10T11:10:22;5.82;;;5.00;;
33268;SDS011;19640;50.944;5.260;2023-05-10T11:15:39;5.75;;;4.97;;
33268;SDS011;19640;50.944;5.260;2023-05-10T11:20:43;5.50;;;4.90;;
33268;SDS011;19640;50.944;5.260;2023-05-10T11:23:15;6.00;;;4.95;;
33268;SDS011;19640;50.944;5.260;2023-05-10T11:25:43;5.97;;;4.68;;
33268;SDS011;19640;50.944;5.260;2023-05-10T11:28:09;6.78;;;4.85;;
33268;SDS011;19640;50.944;5.260;2023-05-10T11:30:37;5.15;;;4.40;;
33268;SDS011;19640;50.944;5.260;2023-05-10T11:33:04;4.97;;;4.40;;
33268;SDS011;19640;50.944;5.260;2023-05-10T11:35:31;5.72;;;3.97;;
33268;SDS011;19640;50.944;5.260;2023-05-10T11:38:05;4.40;;;3.60;;
33268;SDS011;19640;50.944;5.260;2023-05-10T11:40:31;5.25;;;4.10;;
33268;SDS011;19640;50.944;5.260;2023-05-10T11:42:57;7.05;;;3.78;;
33268;SDS011;19640;50.944;5.260;2023-05-10T11:45:26;4.53;;;4.10;;
33268;SDS011;19640;50.944;5.260;2023-05-10T11:47:53;4.38;;;3.80;;
33268;SDS011;19640;50.944;5.260;2023-05-10T11:50:18;10.15;;;3.47;;
33268;SDS011;19640;50.944;5.260;2023-05-10T11:52:44;4.43;;;3.67;;
33268;SDS011;19640;50.944;5.260;2023-05-10T11:55:10;3.83;;;3.45;;
33268;SDS011;19640;50.944;5.260;2023-05-10T11:57:37;4.60;;;3.70;;
33268;SDS011;19640;50.944;5.260;2023-05-10T12:00:03;4.45;;;3.38;;
33268;SDS011;19640;50.944;5.260;2023-05-10T12:02:30;3.78;;;3.15;;
33268;SDS011;19640;50.944;5.260;2023-05-10T12:04:56;3.35;;;2.88;;
33268;SDS011;19640;50.944;5.260;2023-05-10T12:07:22;3.92;;;3.00;;
33268;SDS011;19640;50.944;5.260;2023-05-10T12:12:42;4.47;;;2.38;;
33268;SDS011;19640;50.944;5.260;2023-05-10T12:15:18;2.28;;;1.80;;
33268;SDS011;19640;50.944;5.260;2023-05-10T12:17:48;2.28;;;1.75;;
33268;SDS011;19640;50.944;5.260;2023-05-10T12:20:21;2.22;;;2.03;;
33268;SDS011;19640;50.944;5.260;2023-05-10T12:22:52;4.13;;;2.30;;
33268;SDS011;19640;50.944;5.260;2023-05-10T12:25:19;2.97;;;2.20;;
33268;SDS011;19640;50.944;5.260;2023-05-10T12:27:56;2.75;;;2.25;;
33268;SDS011;19640;50.944;5.260;2023-05-10T12:30:23;2.88;;;2.08;;
33268;SDS011;19640;50.944;5.260;2023-05-10T12:32:50;3.15;;;2.53;;
33268;SDS011;19640;50.944;5.260;2023-05-10T12:35:17;2.60;;;2.05;;
33268;SDS011;19640;50.944;5.260;2023-05-10T12:37:46;1.90;;;1.70;;
33268;SDS011;19640;50.944;5.260;2023-05-10T12:40:13;2.13;;;1.75;;
33268;SDS011;19640;50.944;5.260;2023-05-10T12:42:39;2.92;;;2.05;;
33268;SDS011;19640;50.944;5.260;2023-05-10T12:45:05;1.95;;;1.70;;
33268;SDS011;19640;50.944;5.260;2023-05-10T12:47:32;2.95;;;2.08;;
33268;SDS011;19640;50.944;5.260;2023-05-10T12:49:59;2.53;;;2.15;;
33268;SDS011;19640;50.944;5.260;2023-05-10T12:52:26;3.13;;;2.00;;
33268;SDS011;19640;50.944;5.260;2023-05-10T12:54:53;2.53;;;1.83;;
33268;SDS011;19640;50.944;5.260;2023-05-10T12:57:19;2.60;;;1.80;;
33268;SDS011;19640;50.944;5.260;2023-05-10T12:59:45;2.42;;;1.63;;
33268;SDS011;19640;50.944;5.260;2023-05-10T13:02:11;1.75;;;1.30;;
33268;SDS011;19640;50.944;5.260;2023-05-10T13:04:38;2.05;;;1.48;;
33268;SDS011;19640;50.944;5.260;2023-05-10T13:07:06;1.73;;;1.27;;
33268;SDS011;19640;50.944;5.260;2023-05-10T13:09:32;1.42;;;1.20;;
33268;SDS011;19640;50.944;5.260;2023-05-10T13:11:57;2.65;;;1.00;;
33268;SDS011;19640;50.944;5.260;2023-05-10T13:14:24;2.08;;;0.90;;
33268;SDS011;19640;50.944;5.260;2023-05-10T13:16:50;1.30;;;1.20;;
33268;SDS011;19640;50.944;5.260;2023-05-10T13:19:16;2.15;;;1.80;;
33268;SDS011;19640;50.944;5.260;2023-05-10T13:21:43;1.50;;;1.30;;
33268;SDS011;19640;50.944;5.260;2023-05-10T13:24:09;0.98;;;0.90;;
33268;SDS011;19640;50.944;5.260;2023-05-10T13:26:36;1.45;;;1.27;;
33268;SDS011;19640;50.944;5.260;2023-05-10T13:29:02;1.63;;;1.20;;
33268;SDS011;19640;50.944;5.260;2023-05-10T13:31:28;1.98;;;1.40;;
33268;SDS011;19640;50.944;5.260;2023-05-10T13:33:54;1.13;;;1.02;;
33268;SDS011;19640;50.944;5.260;2023-05-10T13:36:20;1.13;;;1.02;;
33268;SDS011;19640;50.944;5.260;2023-05-10T13:38:46;1.85;;;1.48;;
33268;SDS011;19640;50.944;5.260;2023-05-10T13:41:11;1.65;;;1.20;;
33268;SDS011;19640;50.944;5.260;2023-05-10T13:43:37;0.80;;;0.80;;
33268;SDS011;19640;50.944;5.260;2023-05-10T13:46:03;1.02;;;0.75;;
33268;SDS011;19640;50.944;5.260;2023-05-10T13:48:28;0.90;;;0.90;;
33268;SDS011;19640;50.944;5.260;2023-05-10T13:50:54;1.20;;;1.10;;
33268;SDS011;19640;50.944;5.260;2023-05-10T13:53:20;1.35;;;1.17;;
33268;SDS011;19640;50.944;5.260;2023-05-10T13:55:46;1.92;;;1.00;;
33268;SDS011;19640;50.944;5.260;2023-05-10T13:58:12;0.90;;;0.90;;
33268;SDS011;19640;50.944;5.260;2023-05-10T14:00:37;1.45;;;1.00;;
33268;SDS011;19640;50.944;5.260;2023-05-10T14:03:03;1.30;;;1.20;;
33268;SDS011;19640;50.944;5.260;2023-05-10T14:05:30;1.42;;;1.25;;
33268;SDS011;19640;50.944;5.260;2023-05-10T14:07:55;1.40;;;1.27;;
33268;SDS011;19640;50.944;5.260;2023-05-10T14:10:22;2.83;;;1.30;;
33268;SDS011;19640;50.944;5.260;2023-05-10T14:12:47;1.63;;;1.30;;
33268;SDS011;19640;50.944;5.260;2023-05-10T14:15:15;1.35;;;1.25;;
33268;SDS011;19640;50.944;5.260;2023-05-10T14:17:41;1.60;;;1.50;;
33268;SDS011;19640;50.944;5.260;2023-05-10T14:20:07;2.17;;;1.67;;
33268;SDS011;19640;50.944;5.260;2023-05-10T14:22:33;1.85;;;1.75;;
33268;SDS011;19640;50.944;5.260;2023-05-10T14:24:59;1.85;;;1.70;;
33268;SDS011;19640;50.944;5.260;2023-05-10T14:27:25;2.60;;;1.95;;
33268;SDS011;19640;50.944;5.260;2023-05-10T14:29:51;1.80;;;1.70;;
33268;SDS011;19640;50.944;5.260;2023-05-10T14:32:18;1.85;;;1.75;;
33268;SDS011;19640;50.944;5.260;2023-05-10T14:34:44;1.27;;;1.15;;
33268;SDS011;19640;50.944;5.260;2023-05-10T14:37:10;2.45;;;1.60;;
33268;SDS011;19640;50.944;5.260;2023-05-10T14:39:36;2.00;;;1.73;;
33268;SDS011;19640;50.944;5.260;2023-05-10T14:42:02;2.75;;;1.92;;
33268;SDS011;19640;50.944;5.260;2023-05-10T14:44:29;1.45;;;1.30;;
33268;SDS011;19640;50.944;5.260;2023-05-10T14:46:54;1.50;;;1.40;;
33268;SDS011;19640;50.944;5.260;2023-05-10T14:49:21;8.27;;;2.10;;
33268;SDS011;19640;50.944;5.260;2023-05-10T14:51:47;2.42;;;1.67;;
33268;SDS011;19640;50.944;5.260;2023-05-10T14:54:13;2.95;;;2.10;;
33268;SDS011;19640;50.944;5.260;2023-05-10T14:56:39;2.13;;;1.65;;
33268;SDS011;19640;50.944;5.260;2023-05-10T14:59:06;1.98;;;1.60;;
33268;SDS011;19640;50.944;5.260;2023-05-10T15:01:32;1.67;;;1.58;;
33268;SDS011;19640;50.944;5.260;2023-05-10T15:04:00;2.88;;;1.80;;
33268;SDS011;19640;50.944;5.260;2023-05-10T15:06:32;2.45;;;1.73;;
33268;SDS011;19640;50.944;5.260;2023-05-10T15:08:59;2.63;;;1.73;;
33268;SDS011;19640;50.944;5.260;2023-05-10T15:11:26;2.97;;;1.80;;
33268;SDS011;19640;50.944;5.260;2023-05-10T15:13:52;3.10;;;2.20;;
33268;SDS011;19640;50.944;5.260;2023-05-10T15:16:18;2.05;;;1.42;;
33268;SDS011;19640;50.944;5.260;2023-05-10T15:18:43;1.83;;;1.50;;
33268;SDS011;19640;50.944;5.260;2023-05-10T15:21:09;2.03;;;1.55;;
33268;SDS011;19640;50.944;5.260;2023-05-10T15:23:35;1.42;;;1.33;;
33268;SDS011;19640;50.944;5.260;2023-05-10T15:26:01;2.45;;;1.52;;